sensor_id;sensor_type;location;lat;lon;timestamp;P1;durP1;ratioP1;P2;durP2;ratioP2
24995;SDS011;13016;52.162;21.034;2023-05-10T00:00:48;13.90;;;7.00;;
24995;SDS011;13016;52.162;21.034;2023-05-10T00:06:48;13.70;;;6.30;;
24995;SDS011;13016;52.162;21.034;2023-05-10T00:12:48;13.50;;;6.10;;
24995;SDS011;13016;52.162;21.034;2023-05-10T00:18:49;9.80;;;6.10;;
24995;SDS011;13016;52.162;21.034;2023-05-10T00:24:49;12.80;;;6.50;;
24995;SDS011;13016;52.162;21.034;2023-05-10T00:30:49;12.60;;;6.20;;
24995;SDS011;13016;52.162;21.034;2023-05-10T00:36:49;10.10;;;5.80;;
24995;SDS011;13016;52.162;21.034;2023-05-10T00:42:50;10.60;;;5.60;;
24995;SDS011;13016;52.162;21.034;2023-05-10T00:48:50;8.20;;;5.50;;
24995;SDS011;13016;52.162;21.034;2023-05-10T00:54:51;12.10;;;5.60;;
24995;SDS011;13016;52.162;21.034;2023-05-10T01:00:52;9.20;;;5.60;;
24995;SDS011;13016;52.162;21.034;2023-05-10T01:06:55;8.90;;;5.10;;
24995;SDS011;13016;52.162;21.034;2023-05-10T01:12:55;10.00;;;5.60;;
24995;SDS011;13016;52.162;21.034;2023-05-10T01:18:56;10.40;;;5.60;;
24995;SDS011;13016;52.162;21.034;2023-05-10T01:31:34;7.10;;;4.50;;
24995;SDS011;13016;52.162;21.034;2023-05-10T01:38:06;7.70;;;5.00;;
24995;SDS011;13016;52.162;21.034;2023-05-10T01:44:21;9.10;;;5.40;;
24995;SDS011;13016;52.162;21.034;2023-05-10T01:50:36;8.60;;;5.10;;
24995;SDS011;13016;52.162;21.034;2023-05-10T01:56:39;9.30;;;4.80;;
24995;SDS011;13016;52.162;21.034;2023-05-10T02:02:45;9.40;;;5.10;;
24995;SDS011;13016;52.162;21.034;2023-05-10T02:08:47;10.30;;;4.60;;
24995;SDS011;13016;52.162;21.034;2023-05-10T02:14:50;9.10;;;5.00;;
24995;SDS011;13016;52.162;21.034;2023-05-10T02:26:54;7.70;;;4.90;;
24995;SDS011;13016;52.162;21.034;2023-05-10T02:32:55;6.90;;;4.60;;
24995;SDS011;13016;52.162;21.034;2023-05-10T02:38:56;8.70;;;5.30;;
24995;SDS011;13016;52.162;21.034;2023-05-10T02:45:02;10.70;;;5.50;;
24995;SDS011;13016;52.162;21.034;2023-05-10T02:51:07;8.60;;;5.20;;
24995;SDS011;13016;52.162;21.034;2023-05-10T02:57:08;7.50;;;5.30;;
24995;SDS011;13016;52.162;21.034;2023-05-10T03:03:15;8.30;;;4.80;;
24995;SDS011;13016;52.162;21.034;2023-05-10T03:09:15;8.70;;;5.00;;
24995;SDS011;13016;52.162;21.034;2023-05-10T03:21:31;9.00;;;4.90;;
24995;SDS011;13016;52.162;21.034;2023-05-10T03:27:32;7.20;;;4.90;;
24995;SDS011;13016;52.162;21.034;2023-05-10T03:33:35;9.70;;;4.70;;
24995;SDS011;13016;52.162;21.034;2023-05-10T03:39:35;8.50;;;4.50;;
24995;SDS011;13016;52.162;21.034;2023-05-10T03:45:35;11.30;;;4.60;;
24995;SDS011;13016;52.162;21.034;2023-05-10T03:51:36;7.10;;;4.60;;
24995;SDS011;13016;52.162;21.034;2023-05-10T03:57:36;7.80;;;4.80;;
24995;SDS011;13016;52.162;21.034;2023-05-10T04:03:36;7.00;;;4.40;;
24995;SDS011;13016;52.162;21.034;2023-05-10T04:09:36;7.90;;;4.70;;
24995;SDS011;13016;52.162;21.034;2023-05-10T04:15:37;10.50;;;4.40;;
24995;SDS011;13016;52.162;21.034;2023-05-10T04:21:37;8.70;;;4.80;;
24995;SDS011;13016;52.162;21.034;2023-05-10T04:27:37;8.20;;;4.50;;
24995;SDS011;13016;52.162;21.034;2023-05-10T04:33:37;8.10;;;4.60;;
24995;SDS011;13016;52.162;21.034;2023-05-10T04:39:38;10.30;;;4.70;;
24995;SDS011;13016;52.162;21.034;2023-05-10T04:45:38;7.00;;;4.10;;
24995;SDS011;13016;52.162;21.034;2023-05-10T04:51:38;7.30;;;4.20;;
24995;SDS011;13016;52.162;21.034;2023-05-10T04:57:39;8.90;;;4.90;;
24995;SDS011;13016;52.162;21.034;2023-05-10T05:03:39;6.80;;;4.20;;
24995;SDS011;13016;52.162;21.034;2023-05-10T05:09:39;6.10;;;4.40;;
24995;SDS011;13016;52.162;21.034;2023-05-10T05:15:39;10.00;;;5.60;;
24995;SDS011;13016;52.162;21.034;2023-05-10T05:21:40;8.00;;;4.30;;
24995;SDS011;13016;52.162;21.034;2023-05-10T05:27:40;10.10;;;4.30;;
24995;SDS011;13016;52.162;21.034;2023-05-10T05:33:40;7.10;;;4.10;;
24995;SDS011;13016;52.162;21.034;2023-05-10T05:39:40;9.60;;;4.10;;
24995;SDS011;13016;52.162;21.034;2023-05-10T05:45:41;5.20;;;3.90;;
24995;SDS011;13016;52.162;21.034;2023-05-10T05:51:41;10.60;;;4.00;;
24995;SDS011;13016;52.162;21.034;2023-05-10T05:57:41;7.20;;;3.80;;
24995;SDS011;13016;52.162;21.034;2023-05-10T06:03:42;5.50;;;3.90;;
24995;SDS011;13016;52.162;21.034;2023-05-10T06:09:45;6.40;;;4.10;;
24995;SDS011;13016;52.162;21.034;2023-05-10T06:15:46;6.70;;;4.30;;
24995;SDS011;13016;52.162;21.034;2023-05-10T06:21:51;9.60;;;4.20;;
24995;SDS011;13016;52.162;21.034;2023-05-10T06:27:56;7.90;;;4.00;;
24995;SDS011;13016;52.162;21.034;2023-05-10T06:33:56;6.30;;;3.70;;
24995;SDS011;13016;52.162;21.034;2023-05-10T06:39:58;9.50;;;4.20;;
24995;SDS011;13016;52.162;21.034;2023-05-10T06:45:58;7.20;;;3.80;;
24995;SDS011;13016;52.162;21.034;2023-05-10T06:52:00;7.40;;;3.80;;
24995;SDS011;13016;52.162;21.034;2023-05-10T06:58:01;5.10;;;3.30;;
24995;SDS011;13016;52.162;21.034;2023-05-10T07:04:14;6.30;;;3.00;;
24995;SDS011;13016;52.162;21.034;2023-05-10T07:10:46;5.10;;;3.40;;
24995;SDS011;13016;52.162;21.034;2023-05-10T07:16:46;6.40;;;3.30;;
24995;SDS011;13016;52.162;21.034;2023-05-10T07:22:47;3.90;;;2.90;;
24995;SDS011;13016;52.162;21.034;2023-05-10T07:29:08;6.00;;;3.20;;
24995;SDS011;13016;52.162;21.034;2023-05-10T07:35:10;2.90;;;2.40;;
24995;SDS011;13016;52.162;21.034;2023-05-10T07:41:13;4.40;;;2.60;;
24995;SDS011;13016;52.162;21.034;2023-05-10T07:47:14;4.40;;;2.50;;
24995;SDS011;13016;52.162;21.034;2023-05-10T07:53:43;4.20;;;2.50;;
24995;SDS011;13016;52.162;21.034;2023-05-10T07:59:44;8.20;;;2.80;;
24995;SDS011;13016;52.162;21.034;2023-05-10T08:05:44;4.80;;;2.30;;
24995;SDS011;13016;52.162;21.034;2023-05-10T08:11:45;10.10;;;4.50;;
24995;SDS011;13016;52.162;21.034;2023-05-10T08:18:05;4.00;;;2.30;;
24995;SDS011;13016;52.162;21.034;2023-05-10T08:24:14;5.60;;;2.30;;
24995;SDS011;13016;52.162;21.034;2023-05-10T08:55:20;3.70;;;2.30;;
24995;SDS011;13016;52.162;21.034;2023-05-10T11:55:52;6.00;;;2.20;;
24995;SDS011;13016;52.162;21.034;2023-05-10T12:02:13;5.30;;;2.30;;
24995;SDS011;13016;52.162;21.034;2023-05-10T12:08:20;8.10;;;2.80;;
24995;SDS011;13016;52.162;21.034;2023-05-10T12:14:26;5.20;;;2.00;;
24995;SDS011;13016;52.162;21.034;2023-05-10T13:20:05;5.20;;;2.60;;
24995;SDS011;13016;52.162;21.034;2023-05-10T13:26:13;4.90;;;2.20;;
24995;SDS011;13016;52.162;21.034;2023-05-10T14:11:58;2.60;;;1.70;;
24995;SDS011;13016;52.162;21.034;2023-05-10T14:18:02;4.90;;;1.90;;
24995;SDS011;13016;52.162;21.034;2023-05-10T14:45:46;4.80;;;2.00;;
24995;SDS011;13016;52.162;21.034;2023-05-10T14:51:47;3.40;;;2.00;;
24995;SDS011;13016;52.162;21.034;2023-05-10T14:58:03;5.00;;;2.10;;
24995;SDS011;13016;52.162;21.034;2023-05-10T15:10:54;4.30;;;1.90;;
24995;SDS011;13016;52.162;21.034;2023-05-10T15:16:54;3.70;;;2.20;;
24995;SDS011;13016;52.162;21.034;2023-05-10T15:22:54;4.40;;;2.30;;
24995;SDS011;13016;52.162;21.034;2023-05-10T15:28:55;4.00;;;1.90;;
24995;SDS011;13016;52.162;21.034;2023-05-10T15:34:55;3.70;;;1.80;;
24995;SDS011;13016;52.162;21.034;2023-05-10T15:40:56;2.70;;;2.10;;
24995;SDS011;13016;52.162;21.034;2023-05-10T15:46:56;4.20;;;2.10;;
24995;SDS011;13016;52.162;21.034;2023-05-10T16:07:23;5.40;;;1.90;;
24995;SDS011;13016;52.162;21.034;2023-05-10T16:28:57;2.20;;;2.00;;
24995;SDS011;13016;52.162;21.034;2023-05-10T16:34:59;2.90;;;1.70;;
24995;SDS011;13016;52.162;21.034;2023-05-10T16:42:15;3.10;;;1.70;;
24995;SDS011;13016;52.162;21.034;2023-05-10T16:55:05;3.40;;;1.70;;
24995;SDS011;13016;52.162;21.034;2023-05-10T17:01:08;1.80;;;1.40;;
24995;SDS011;13016;52.162;21.034;2023-05-10T17:07:24;4.30;;;1.70;;
24995;SDS011;13016;52.162;21.034;2023-05-10T17:20:00;4.00;;;1.90;;
24995;SDS011;13016;52.162;21.034;2023-05-10T17:26:02;2.80;;;1.70;;
24995;SDS011;13016;52.162;21.034;2023-05-10T17:32:03;4.60;;;1.90;;
24995;SDS011;13016;52.162;21.034;2023-05-10T17:38:04;2.40;;;1.80;;
24995;SDS011;13016;52.162;21.034;2023-05-10T17:44:05;2.40;;;2.00;;
24995;SDS011;13016;52.162;21.034;2023-05-10T17:50:05;4.90;;;2.10;;
24995;SDS011;13016;52.162;21.034;2023-05-10T17:56:06;3.20;;;1.80;;
24995;SDS011;13016;52.162;21.034;2023-05-10T18:02:06;4.00;;;2.20;;
24995;SDS011;13016;52.162;21.034;2023-05-10T18:08:06;6.90;;;2.10;;
24995;SDS011;13016;52.162;21.034;2023-05-10T18:14:07;4.40;;;2.40;;
24995;SDS011;13016;52.162;21.034;2023-05-10T18:20:19;3.10;;;2.20;;
24995;SDS011;13016;52.162;21.034;2023-05-10T18:26:19;3.60;;;2.10;;
24995;SDS011;13016;52.162;21.034;2023-05-10T18:32:20;2.90;;;2.40;;
24995;SDS011;13016;52.162;21.034;2023-05-10T18:38:20;6.10;;;2.50;;
24995;SDS011;13016;52.162;21.034;2023-05-10T18:44:20;6.30;;;2.50;;
24995;SDS011;13016;52.162;21.034;2023-05-10T18:50:20;3.90;;;2.60;;
24995;SDS011;13016;52.162;21.034;2023-05-10T18:56:21;5.60;;;3.10;;
24995;SDS011;13016;52.162;21.034;2023-05-10T19:02:21;4.80;;;2.80;;
24995;SDS011;13016;52.162;21.034;2023-05-10T19:08:22;5.80;;;3.80;;
24995;SDS011;13016;52.162;21.034;2023-05-10T19:14:22;5.40;;;3.20;;
24995;SDS011;13016;52.162;21.034;2023-05-10T19:20:23;6.20;;;3.40;;
24995;SDS011;13016;52.162;21.034;2023-05-10T19:26:23;9.20;;;3.50;;
24995;SDS011;13016;52.162;21.034;2023-05-10T19:32:23;8.30;;;3.70;;
24995;SDS011;13016;52.162;21.034;2023-05-10T19:38:24;5.80;;;3.50;;
24995;SDS011;13016;52.162;21.034;2023-05-10T19:44:24;7.60;;;4.00;;
24995;SDS011;13016;52.162;21.034;2023-05-10T19:50:25;6.50;;;3.80;;
24995;SDS011;13016;52.162;21.034;2023-05-10T19:56:25;7.70;;;3.90;;
24995;SDS011;13016;52.162;21.034;2023-05-10T20:02:25;7.80;;;4.50;;
24995;SDS011;13016;52.162;21.034;2023-05-10T20:08:26;6.30;;;4.20;;
24995;SDS011;13016;52.162;21.034;2023-05-10T20:14:26;9.00;;;4.20;;
24995;SDS011;13016;52.162;21.034;2023-05-10T20:20:26;9.70;;;4.30;;
24995;SDS011;13016;52.162;21.034;2023-05-10T20:26:26;8.10;;;4.60;;
24995;SDS011;13016;52.162;21.034;2023-05-10T20:32:27;14.20;;;4.50;;
24995;SDS011;13016;52.162;21.034;2023-05-10T20:38:27;10.20;;;4.10;;
24995;SDS011;13016;52.162;21.034;2023-05-10T20:44:27;7.60;;;4.10;;
24995;SDS011;13016;52.162;21.034;2023-05-10T20:50:27;6.60;;;4.00;;
24995;SDS011;13016;52.162;21.034;2023-05-10T20:56:28;7.10;;;4.20;;
24995;SDS011;13016;52.162;21.034;2023-05-10T21:02:28;7.00;;;4.10;;
24995;SDS011;13016;52.162;21.034;2023-05-10T21:08:29;8.00;;;3.80;;
24995;SDS011;13016;52.162;21.034;2023-05-10T21:14:29;6.30;;;4.00;;
24995;SDS011;13016;52.162;21.034;2023-05-10T21:20:30;8.90;;;4.10;;
24995;SDS011;13016;52.162;21.034;2023-05-10T21:26:30;7.90;;;4.40;;
24995;SDS011;13016;52.162;21.034;2023-05-10T21:32:31;5.10;;;3.80;;
24995;SDS011;13016;52.162;21.034;2023-05-10T21:38:31;10.00;;;4.30;;
24995;SDS011;13016;52.162;21.034;2023-05-10T21:44:32;7.80;;;4.20;;
24995;SDS011;13016;52.162;21.034;2023-05-10T21:50:32;9.80;;;4.70;;
24995;SDS011;13016;52.162;21.034;2023-05-10T21:56:32;9.00;;;4.30;;
24995;SDS011;13016;52.162;21.034;2023-05-10T22:02:32;9.50;;;4.70;;
24995;SDS011;13016;52.162;21.034;2023-05-10T22:08:33;10.70;;;6.20;;
24995;SDS011;13016;52.162;21.034;2023-05-10T22:14:33;6.10;;;4.30;;
24995;SDS011;13016;52.162;21.034;2023-05-10T22:20:33;8.70;;;4.10;;
24995;SDS011;13016;52.162;21.034;2023-05-10T22:26:34;7.50;;;3.90;;
24995;SDS011;13016;52.162;21.034;2023-05-10T22:32:34;7.70;;;4.00;;
24995;SDS011;13016;52.162;21.034;2023-05-10T22:38:35;9.40;;;3.80;;
24995;SDS011;13016;52.162;21.034;2023-05-10T22:44:35;4.80;;;3.70;;
24995;SDS011;13016;52.162;21.034;2023-05-10T22:50:35;9.50;;;3.70;;
24995;SDS011;13016;52.162;21.034;2023-05-10T22:56:35;9.60;;;3.90;;
24995;SDS011;13016;52.162;21.034;2023-05-10T23:02:36;6.70;;;3.70;;
24995;SDS011;13016;52.162;21.034;2023-05-10T23:08:36;5.90;;;3.40;;
24995;SDS011;13016;52.162;21.034;2023-05-10T23:14:36;6.20;;;3.50;;
24995;SDS011;13016;52.162;21.034;2023-05-10T23:20:36;9.50;;;3.40;;
24995;SDS011;13016;52.162;21.034;2023-05-10T23:26:37;5.90;;;3.40;;
24995;SDS011;13016;52.162;21.034;2023-05-10T23:32:37;5.80;;;3.40;;
24995;SDS011;13016;52.162;21.034;2023-05-10T23:38:37;6.40;;;3.00;;
24995;SDS011;13016;52.162;21.034;2023-05-10T23:44:38;8.30;;;3.00;;
24995;SDS011;13016;52.162;21.034;2023-05-10T23:50:42;4.40;;;2.80;;
24995;SDS011;13016;52.162;21.034;2023-05-10T23:56:43;6.50;;;3.20;;
